Time;durP1;ratioP1;P1;durP2;ratioP2;P2;SDS_P1;SDS_P2;PMS_P1;PMS_P2;Temp;Humidity;BMP_temperature;BMP_pressure;BME280_temperature;BME280_humidity;BME280_pressure;Samples;Min_cycle;Max_cycle;Signal;HPM_P1;HPM_P2
2023/07/23 00:04:37;;;;;;;6.90;6.10;;;24.70;47.50;;;;;;222058;1269;22628;-41
2023/07/23 00:09:42;;;;;;;6.90;5.90;;;24.70;47.50;;;;;;221998;1266;24190;-43
2023/07/23 00:14:46;;;;;;;6.90;6.30;;;24.70;47.60;;;;;;222043;1266;22556;-44
2023/07/23 00:19:50;;;;;;;6.40;5.80;;;24.60;47.70;;;;;;222055;1269;22568;-42
2023/07/23 00:24:56;;;;;;;6.50;5.90;;;24.60;47.60;;;;;;221975;1260;22514;-41
2023/07/23 00:30:03;;;;;;;7.20;6.40;;;24.60;47.60;;;;;;222370;1267;24287;-42
2023/07/23 00:35:09;;;;;;;6.80;6.20;;;24.60;47.70;;;;;;222061;1268;23886;-43
2023/07/23 00:40:14;;;;;;;6.80;6.10;;;24.60;47.60;;;;;;221929;1259;24193;-42
2023/07/23 00:45:19;;;;;;;6.60;6.00;;;24.60;47.60;;;;;;222191;1269;23670;-41
2023/07/23 00:50:23;;;;;;;6.40;5.60;;;24.60;47.70;;;;;;221896;1268;22511;-42
2023/07/23 00:55:28;;;;;;;6.00;5.50;;;24.60;48.10;;;;;;221770;1257;22970;-41
2023/07/23 01:00:32;;;;;;;6.30;5.70;;;24.60;48.20;;;;;;221861;1255;22509;-42
2023/07/23 01:05:41;;;;;;;7.00;6.30;;;24.60;47.90;;;;;;221880;1257;23129;-41
2023/07/23 01:10:46;;;;;;;5.60;5.10;;;24.60;48.10;;;;;;222058;1269;25568;-42
2023/07/23 01:15:51;;;;;;;7.60;6.00;;;24.50;48.00;;;;;;222188;1259;23032;-41
2023/07/23 01:20:56;;;;;;;5.90;5.40;;;24.60;48.10;;;;;;222071;1263;22759;-43
2023/07/23 01:26:00;;;;;;;5.80;5.30;;;24.50;48.10;;;;;;222360;1257;22521;-42
2023/07/23 01:31:04;;;;;;;6.00;5.50;;;24.50;48.50;;;;;;222000;1262;24343;-42
2023/07/23 01:36:10;;;;;;;5.80;5.30;;;24.50;48.30;;;;;;221903;1269;23931;-42
2023/07/23 01:41:14;;;;;;;5.60;5.10;;;24.50;48.30;;;;;;222043;1269;25322;-42
2023/07/23 01:46:18;;;;;;;5.10;4.70;;;24.50;48.40;;;;;;222104;1269;22511;-42
2023/07/23 01:51:23;;;;;;;6.20;5.60;;;24.50;48.30;;;;;;222333;1266;22648;-42
2023/07/23 01:56:27;;;;;;;6.00;5.50;;;24.40;48.30;;;;;;221892;1254;24187;-41
2023/07/23 02:01:32;;;;;;;6.80;5.20;;;24.40;48.20;;;;;;222043;1261;23057;-41
2023/07/23 02:06:36;;;;;;;6.00;5.50;;;24.40;48.20;;;;;;222142;1269;22634;-41
2023/07/23 02:11:40;;;;;;;6.20;5.40;;;24.40;48.70;;;;;;222377;1268;24204;-44
2023/07/23 02:16:45;;;;;;;5.10;4.70;;;24.40;48.30;;;;;;221931;1266;228528;-41
2023/07/23 02:21:49;;;;;;;5.70;5.20;;;24.40;48.50;;;;;;222116;1257;24195;-42
2023/07/23 02:26:53;;;;;;;5.80;5.30;;;24.40;48.40;;;;;;222384;1263;23931;-42
2023/07/23 02:31:57;;;;;;;5.70;5.10;;;24.40;48.40;;;;;;222090;1255;22923;-42
2023/07/23 02:37:02;;;;;;;5.50;5.00;;;24.30;48.50;;;;;;221994;1269;24292;-41
2023/07/23 02:42:06;;;;;;;5.70;5.20;;;24.30;48.50;;;;;;222167;1268;24261;-42
2023/07/23 02:47:11;;;;;;;5.00;4.60;;;24.30;48.50;;;;;;222022;1256;24189;-42
2023/07/23 02:52:15;;;;;;;7.20;5.20;;;24.30;48.60;;;;;;222024;1254;22685;-40
2023/07/23 02:57:21;;;;;;;6.00;4.80;;;24.30;49.00;;;;;;222283;1264;24391;-43
2023/07/23 03:02:25;;;;;;;5.00;4.60;;;24.30;48.70;;;;;;222038;1263;26790;-42
2023/07/23 03:07:32;;;;;;;5.10;4.60;;;24.30;48.70;;;;;;222129;1269;24205;-43
2023/07/23 03:12:36;;;;;;;5.70;5.10;;;24.30;48.80;;;;;;222039;1268;24245;-42
2023/07/23 03:17:40;;;;;;;5.20;4.80;;;24.20;48.80;;;;;;221804;1260;22508;-45
2023/07/23 03:22:44;;;;;;;4.70;4.40;;;24.20;48.80;;;;;;221789;1269;22701;-43
2023/07/23 03:27:49;;;;;;;5.10;4.70;;;24.20;48.90;;;;;;222143;1269;22508;-42
2023/07/23 03:32:54;;;;;;;4.70;4.30;;;24.20;48.90;;;;;;221767;1269;22559;-42
2023/07/23 03:37:59;;;;;;;5.20;4.70;;;24.20;49.30;;;;;;222483;1256;24240;-44
2023/07/23 03:43:04;;;;;;;5.60;5.10;;;24.20;49.10;;;;;;221953;1269;24337;-40
2023/07/23 03:48:08;;;;;;;5.60;5.10;;;24.20;49.00;;;;;;222288;1269;22592;-43
2023/07/23 03:53:12;;;;;;;5.00;4.60;;;24.20;49.50;;;;;;221999;1265;25409;-43
2023/07/23 03:58:17;;;;;;;4.80;4.40;;;24.20;49.20;;;;;;222014;1266;22533;-43
2023/07/23 04:03:21;;;;;;;4.90;4.50;;;24.20;49.30;;;;;;221957;1263;25380;-43
2023/07/23 04:08:26;;;;;;;5.10;4.60;;;24.10;49.20;;;;;;222204;1266;22524;-44
2023/07/23 04:13:30;;;;;;;5.00;4.60;;;24.10;49.40;;;;;;221996;1266;22516;-43
2023/07/23 04:18:49;;;;;;;5.00;4.60;;;24.20;49.30;;;;;;222117;1268;22519;-42
2023/07/23 04:24:00;;;;;;;5.00;4.60;;;24.20;50.00;;;;;;222097;1269;25258;-41
2023/07/23 04:29:05;;;;;;;5.00;4.60;;;24.10;49.40;;;;;;222029;1264;22529;-41
2023/07/23 04:34:09;;;;;;;5.50;4.40;;;24.20;49.50;;;;;;222338;1256;22507;-42
2023/07/23 04:39:14;;;;;;;5.00;4.50;;;24.20;49.00;;;;;;221817;1269;23875;-42
2023/07/23 04:44:18;;;;;;;4.50;4.10;;;24.10;49.50;;;;;;222004;1269;22602;-43
2023/07/23 04:49:22;;;;;;;3.60;3.30;;;24.10;49.40;;;;;;222079;1269;22552;-42
2023/07/23 04:54:26;;;;;;;4.70;4.30;;;24.10;49.60;;;;;;222018;1269;22537;-41
2023/07/23 04:59:30;;;;;;;4.20;3.90;;;24.10;49.80;;;;;;222089;1259;22511;-41
2023/07/23 05:04:35;;;;;;;4.30;3.90;;;24.10;49.60;;;;;;221787;1269;22508;-43
2023/07/23 05:09:42;;;;;;;3.80;3.50;;;24.10;49.50;;;;;;222479;1263;22505;-44
2023/07/23 05:14:48;;;;;;;4.30;3.80;;;24.10;49.90;;;;;;222219;1254;24376;-42
2023/07/23 05:19:52;;;;;;;4.20;3.80;;;24.10;49.70;;;;;;222098;1254;22737;-42
2023/07/23 05:24:56;;;;;;;4.40;4.00;;;24.10;49.60;;;;;;221877;1269;22640;-44
2023/07/23 05:30:01;;;;;;;4.20;3.90;;;24.10;49.80;;;;;;221951;1263;22508;-45
2023/07/23 05:35:06;;;;;;;4.20;3.90;;;24.10;49.80;;;;;;222400;1269;22519;-42
2023/07/23 05:40:11;;;;;;;4.40;4.00;;;24.20;50.10;;;;;;222191;1264;22505;-43
2023/07/23 05:45:15;;;;;;;4.50;4.10;;;24.20;49.80;;;;;;222141;1269;22510;-43
2023/07/23 05:50:20;;;;;;;5.50;3.90;;;24.20;49.50;;;;;;221807;1254;25417;-42
2023/07/23 05:55:24;;;;;;;4.50;4.10;;;24.20;50.00;;;;;;222225;1266;25953;-42
2023/07/23 06:00:30;;;;;;;4.20;3.90;;;24.30;50.30;;;;;;222024;1266;24365;-41
2023/07/23 06:05:34;;;;;;;3.90;3.60;;;24.30;49.80;;;;;;222065;1269;25256;-42
2023/07/23 06:10:38;;;;;;;4.70;4.20;;;24.30;49.70;;;;;;221960;1263;22510;-42
2023/07/23 06:15:43;;;;;;;4.30;3.90;;;24.30;50.00;;;;;;221980;1269;22629;-43
2023/07/23 06:20:47;;;;;;;4.00;3.60;;;24.40;50.20;;;;;;221823;1259;22512;-42
2023/07/23 06:25:58;;;;;;;3.70;3.40;;;24.30;49.70;;;;;;221818;1269;22508;-42
2023/07/23 06:31:02;;;;;;;4.00;3.70;;;24.30;50.50;;;;;;221868;1269;25265;-40
2023/07/23 06:36:06;;;;;;;4.20;3.90;;;24.40;50.00;;;;;;222105;1269;22512;-42
2023/07/23 06:41:10;;;;;;;4.30;3.90;;;24.50;50.00;;;;;;222093;1266;22834;-41
2023/07/23 06:46:18;;;;;;;3.90;3.60;;;24.50;49.90;;;;;;222297;1269;22528;-42
2023/07/23 06:51:22;;;;;;;4.00;3.50;;;24.50;50.00;;;;;;222598;1266;24427;-42
2023/07/23 06:56:27;;;;;;;4.10;3.80;;;24.60;50.00;;;;;;222080;1269;25249;-42
2023/07/23 07:01:31;;;;;;;3.90;3.60;;;24.70;50.00;;;;;;222196;1266;24209;-42
2023/07/23 07:06:35;;;;;;;3.80;3.40;;;24.60;50.10;;;;;;222419;1269;25329;-43
2023/07/23 07:11:40;;;;;;;4.00;3.70;;;24.60;50.20;;;;;;222206;1269;22512;-43
2023/07/23 07:16:44;;;;;;;3.50;3.30;;;24.60;49.90;;;;;;222110;1266;22525;-42
2023/07/23 07:21:50;;;;;;;3.20;3.00;;;24.60;50.20;;;;;;222369;1264;22622;-42
2023/07/23 07:26:54;;;;;;;3.60;3.40;;;24.50;50.40;;;;;;222107;1256;22520;-41
2023/07/23 07:31:58;;;;;;;3.70;3.00;;;24.60;50.80;;;;;;222194;1266;25214;-42
2023/07/23 07:37:03;;;;;;;3.40;3.20;;;24.50;50.50;;;;;;222190;1269;25594;-42
2023/07/23 07:42:08;;;;;;;3.70;3.40;;;24.60;50.50;;;;;;222550;1269;24197;-41
2023/07/23 07:47:12;;;;;;;4.20;3.60;;;24.60;50.50;;;;;;222166;1257;24279;-44
2023/07/23 07:52:16;;;;;;;3.40;3.10;;;24.60;50.50;;;;;;221977;1269;24170;-42
2023/07/23 07:57:22;;;;;;;3.70;3.40;;;24.60;50.50;;;;;;221870;1269;22527;-44
2023/07/23 08:02:26;;;;;;;4.10;3.10;;;24.60;50.40;;;;;;222177;1266;24318;-43
2023/07/23 08:07:31;;;;;;;3.40;3.20;;;24.60;50.40;;;;;;222177;1269;22514;-43
2023/07/23 08:12:35;;;;;;;3.10;2.80;;;24.70;50.80;;;;;;222037;1263;24276;-42
2023/07/23 08:17:40;;;;;;;3.80;3.50;;;24.70;50.40;;;;;;222149;1263;22566;-43
2023/07/23 08:22:45;;;;;;;3.30;3.00;;;24.70;50.80;;;;;;222298;1269;22630;-43
2023/07/23 08:27:58;;;;;;;3.80;3.10;;;24.70;50.70;;;;;;222531;1264;23565;-43
2023/07/23 08:33:03;;;;;;;3.30;3.10;;;24.70;50.30;;;;;;222477;1264;22510;-41
2023/07/23 08:38:08;;;;;;;3.60;3.30;;;24.80;49.70;;;;;;222069;1269;22504;-40
2023/07/23 08:43:26;;;;;;;3.70;3.40;;;24.80;50.50;;;;;;222176;1269;22521;-43
2023/07/23 08:48:56;;;;;;;3.10;2.90;;;24.80;50.30;;;;;;222220;1267;22592;-43
2023/07/23 08:54:02;;;;;;;3.00;2.80;;;24.90;50.20;;;;;;222257;1269;24339;-43
2023/07/23 08:59:09;;;;;;;3.20;3.00;;;25.00;49.60;;;;;;222096;1262;25290;-42
2023/07/23 09:04:14;;;;;;;3.10;2.90;;;25.10;49.70;;;;;;222060;1269;25526;-41
2023/07/23 09:09:18;;;;;;;3.40;3.10;;;25.10;49.60;;;;;;221882;1265;24039;-41
2023/07/23 09:14:22;;;;;;;3.10;2.90;;;25.10;49.60;;;;;;222066;1263;24397;-42
2023/07/23 09:19:27;;;;;;;3.00;2.80;;;25.10;49.50;;;;;;222238;1269;22507;-42
2023/07/23 09:24:33;;;;;;;3.50;3.30;;;25.10;49.60;;;;;;222380;1259;24154;-42
2023/07/23 09:29:43;;;;;;;3.10;2.90;;;25.10;49.60;;;;;;222448;1269;26499;-43
2023/07/23 09:34:48;;;;;;;3.90;3.10;;;25.10;49.50;;;;;;222372;1266;22676;-42
2023/07/23 09:39:56;;;;;;;3.80;3.50;;;25.10;49.50;;;;;;222259;1264;24028;-42
2023/07/23 09:45:01;;;;;;;3.20;2.90;;;25.20;49.50;;;;;;222299;1264;22582;-42
2023/07/23 09:50:09;;;;;;;3.20;3.00;;;25.20;49.30;;;;;;222129;1269;22523;-42
2023/07/23 09:55:14;;;;;;;4.60;4.20;;;25.30;49.50;;;;;;221996;1269;22511;-43
2023/07/23 10:00:19;;;;;;;3.10;2.90;;;25.20;49.40;;;;;;222107;1269;25625;-43
2023/07/23 10:05:25;;;;;;;3.30;3.10;;;25.20;49.30;;;;;;222199;1267;25347;-43
2023/07/23 10:10:30;;;;;;;3.20;2.90;;;25.30;49.30;;;;;;221922;1269;22648;-43
2023/07/23 10:15:37;;;;;;;3.00;2.80;;;25.30;49.10;;;;;;221814;1269;22512;-42
2023/07/23 10:20:44;;;;;;;3.10;2.90;;;25.30;49.10;;;;;;222420;1269;25269;-43
2023/07/23 10:25:48;;;;;;;3.50;3.30;;;25.30;48.90;;;;;;222151;1263;23670;-42
2023/07/23 10:31:19;;;;;;;3.40;3.20;;;25.30;48.90;;;;;;221967;1269;25557;-43
2023/07/23 10:36:23;;;;;;;4.20;2.80;;;25.30;49.00;;;;;;222305;1263;22641;-43
2023/07/23 10:41:48;;;;;;;3.20;2.90;;;25.30;48.80;;;;;;222241;1269;22511;-42
2023/07/23 10:46:53;;;;;;;2.70;2.50;;;25.30;49.60;;;;;;222075;1269;22595;-43
2023/07/23 10:52:16;;;;;;;3.10;2.90;;;25.40;49.10;;;;;;221975;1257;24244;-42
2023/07/23 10:57:26;;;;;;;2.60;2.40;;;25.40;48.80;;;;;;222210;1264;22785;-44
2023/07/23 11:02:30;;;;;;;2.70;2.50;;;25.50;49.10;;;;;;221915;1260;26347;-42
2023/07/23 11:07:35;;;;;;;2.90;2.70;;;25.60;48.60;;;;;;222153;1254;22627;-43
2023/07/23 11:12:41;;;;;;;2.90;2.70;;;25.70;48.00;;;;;;221927;1269;22545;-43
2023/07/23 11:17:46;;;;;;;3.00;2.50;;;25.70;48.50;;;;;;221979;1269;23877;-44
2023/07/23 11:23:08;;;;;;;3.20;2.70;;;25.70;48.40;;;;;;221795;1249;24186;-43
2023/07/23 11:28:13;;;;;;;2.90;2.70;;;25.80;48.20;;;;;;221882;1248;22916;-48
2023/07/23 11:33:20;;;;;;;2.50;2.40;;;25.80;48.30;;;;;;222048;1254;22644;-43
2023/07/23 11:38:42;;;;;;;3.10;2.80;;;25.80;48.30;;;;;;222184;1260;22594;-42
2023/07/23 11:43:46;;;;;;;3.00;2.80;;;25.80;48.70;;;;;;222093;1267;25460;-42
2023/07/23 11:48:53;;;;;;;3.00;2.70;;;25.90;48.40;;;;;;221950;1267;22604;-42
2023/07/23 11:54:07;;;;;;;2.80;2.60;;;25.90;48.10;;;;;;222256;1269;24129;-42
2023/07/23 11:59:13;;;;;;;3.20;2.90;;;26.00;48.10;;;;;;222199;1269;22717;-44
2023/07/23 12:04:21;;;;;;;2.80;2.60;;;26.00;48.50;;;;;;222247;1257;22508;-44
2023/07/23 12:09:25;;;;;;;3.10;2.90;;;26.00;48.40;;;;;;222035;1264;22498;-42
2023/07/23 12:14:30;;;;;;;2.90;2.70;;;26.00;48.10;;;;;;222210;1269;22521;-45
2023/07/23 12:19:34;;;;;;;2.80;2.60;;;26.00;48.00;;;;;;222200;1269;23144;-43
2023/07/23 12:24:38;;;;;;;2.70;2.50;;;26.00;48.00;;;;;;222006;1254;24260;-46
2023/07/23 12:29:43;;;;;;;2.80;2.60;;;26.00;47.90;;;;;;221972;1254;22615;-44
2023/07/23 12:34:51;;;;;;;3.40;3.20;;;26.00;47.80;;;;;;221858;1269;22650;-44
2023/07/23 12:39:55;;;;;;;2.90;2.70;;;26.00;47.90;;;;;;222230;1267;22515;-43
2023/07/23 12:45:01;;;;;;;2.60;2.40;;;26.10;47.60;;;;;;221958;1269;24314;-42
2023/07/23 12:50:06;;;;;;;2.70;2.50;;;26.10;47.80;;;;;;222114;1270;25214;-43
2023/07/23 12:55:10;;;;;;;2.20;2.10;;;26.10;47.80;;;;;;222307;1254;25391;-44
2023/07/23 13:00:16;;;;;;;2.60;2.40;;;26.10;47.80;;;;;;222345;1269;25259;-43
2023/07/23 13:05:22;;;;;;;2.50;2.30;;;26.10;47.80;;;;;;221869;1260;22716;-42
2023/07/23 13:10:26;;;;;;;2.70;2.50;;;26.20;48.10;;;;;;222188;1263;25261;-43
2023/07/23 13:15:31;;;;;;;2.40;2.20;;;26.20;47.30;;;;;;222211;1266;25249;-42
2023/07/23 13:20:35;;;;;;;3.50;2.20;;;26.20;47.60;;;;;;222222;1266;22518;-42
2023/07/23 13:25:42;;;;;;;2.60;2.40;;;26.30;47.60;;;;;;222167;1264;22674;-44
2023/07/23 13:30:46;;;;;;;2.50;2.30;;;26.20;47.20;;;;;;221915;1254;24337;-44
2023/07/23 13:35:53;;;;;;;3.60;2.70;;;26.20;47.60;;;;;;221856;1254;24183;-45
2023/07/23 13:40:57;;;;;;;2.50;2.30;;;26.20;46.20;;;;;;222117;1264;25399;-43
2023/07/23 13:46:02;;;;;;;2.70;2.50;;;26.20;47.70;;;;;;221945;1254;25277;-42
2023/07/23 13:51:06;;;;;;;2.50;2.30;;;26.20;47.30;;;;;;221847;1254;22504;-44
2023/07/23 13:56:11;;;;;;;2.60;2.40;;;26.30;46.50;;;;;;222147;1254;22614;-45
2023/07/23 14:01:16;;;;;;;2.60;2.40;;;26.30;46.90;;;;;;222222;1269;22741;-43
2023/07/23 14:06:23;;;;;;;2.90;2.70;;;26.30;46.40;;;;;;221973;1257;24187;-45
2023/07/23 14:11:27;;;;;;;2.30;2.20;;;26.30;46.50;;;;;;222069;1256;23895;-46
2023/07/23 14:16:36;;;;;;;3.00;2.80;;;26.30;47.10;;;;;;221870;1255;238288;-42
2023/07/23 14:21:40;;;;;;;3.00;2.80;;;26.30;47.00;;;;;;221917;1254;23900;-42
2023/07/23 14:26:45;;;;;;;2.70;2.50;;;26.30;47.20;;;;;;222354;1268;24179;-43
2023/07/23 14:31:50;;;;;;;2.90;2.70;;;26.30;47.20;;;;;;222105;1256;22791;-44
2023/07/23 14:36:54;;;;;;;2.70;2.50;;;26.30;47.10;;;;;;222211;1254;24184;-42
2023/07/23 14:41:59;;;;;;;2.90;2.70;;;26.20;47.20;;;;;;222206;1256;22510;-43
2023/07/23 14:47:03;;;;;;;2.60;2.50;;;26.30;47.20;;;;;;221980;1264;22511;-43
2023/07/23 14:52:07;;;;;;;2.70;2.50;;;26.30;47.30;;;;;;222195;1266;22521;-43
2023/07/23 14:57:12;;;;;;;2.80;2.60;;;26.30;47.80;;;;;;222114;1247;22553;-44
2023/07/23 15:02:18;;;;;;;2.60;2.40;;;26.20;47.50;;;;;;221992;1269;23924;-43
2023/07/23 15:07:23;;;;;;;2.90;2.70;;;26.30;47.60;;;;;;222315;1254;23007;-43
2023/07/23 15:12:28;;;;;;;2.90;2.60;;;26.20;47.70;;;;;;222130;1263;25449;-43
2023/07/23 15:17:33;;;;;;;2.70;2.50;;;26.30;47.70;;;;;;222145;1265;25297;-42
2023/07/23 15:22:39;;;;;;;2.60;2.50;;;26.20;47.80;;;;;;222096;1255;25392;-43
2023/07/23 15:27:45;;;;;;;2.80;2.60;;;26.30;47.40;;;;;;222063;1265;24369;-42
2023/07/23 15:32:50;;;;;;;2.60;2.40;;;26.20;47.80;;;;;;222282;1266;25387;-45
2023/07/23 15:37:55;;;;;;;2.70;2.50;;;26.20;47.60;;;;;;221909;1266;22778;-43
2023/07/23 15:42:59;;;;;;;2.50;2.40;;;26.20;47.90;;;;;;222225;1255;22849;-43
2023/07/23 15:48:04;;;;;;;2.80;2.60;;;26.20;47.20;;;;;;222312;1254;24355;-43
2023/07/23 15:53:09;;;;;;;2.60;2.40;;;26.20;48.00;;;;;;222000;1254;22515;-42
2023/07/23 15:58:14;;;;;;;3.10;2.90;;;26.20;47.80;;;;;;221974;1255;22648;-44
2023/07/23 16:03:19;;;;;;;2.40;2.30;;;26.20;48.20;;;;;;222335;1256;23274;-43
2023/07/23 16:08:24;;;;;;;2.30;2.20;;;26.20;47.60;;;;;;222330;1266;25313;-42
2023/07/23 16:13:29;;;;;;;2.30;2.20;;;26.20;47.60;;;;;;222209;1267;24979;-44
2023/07/23 16:18:33;;;;;;;2.60;2.40;;;26.20;47.60;;;;;;222115;1256;24184;-44
2023/07/23 16:23:38;;;;;;;2.80;2.60;;;26.20;47.80;;;;;;222239;1264;22734;-43
2023/07/23 16:28:43;;;;;;;2.90;2.70;;;26.20;48.00;;;;;;222250;1256;22595;-44
2023/07/23 16:33:48;;;;;;;2.90;2.70;;;26.20;47.70;;;;;;222114;1263;23913;-44
2023/07/23 16:38:53;;;;;;;2.20;2.10;;;26.20;47.70;;;;;;222153;1263;22762;-43
2023/07/23 16:44:01;;;;;;;2.80;2.60;;;26.20;48.00;;;;;;222233;1263;23912;-43
2023/07/23 16:49:07;;;;;;;2.40;2.20;;;26.20;47.70;;;;;;222149;1259;22515;-42
2023/07/23 16:54:12;;;;;;;2.60;2.40;;;26.20;47.50;;;;;;222172;1266;24774;-43
2023/07/23 16:59:17;;;;;;;2.70;2.50;;;26.20;47.90;;;;;;221894;1255;22598;-45
2023/07/23 17:04:22;;;;;;;2.40;2.20;;;26.20;47.50;;;;;;222146;1266;25487;-46
2023/07/23 17:09:26;;;;;;;2.80;2.60;;;26.20;47.60;;;;;;222150;1263;22612;-44
2023/07/23 17:14:31;;;;;;;2.60;2.40;;;26.20;47.70;;;;;;221904;1259;22552;-43
2023/07/23 17:19:35;;;;;;;2.50;2.40;;;26.20;47.60;;;;;;222342;1256;22523;-44
2023/07/23 17:24:41;;;;;;;2.70;2.50;;;26.20;48.00;;;;;;221986;1266;24385;-46
2023/07/23 17:29:49;;;;;;;2.90;2.70;;;26.20;47.80;;;;;;222266;1254;24393;-43
2023/07/23 17:34:54;;;;;;;2.70;2.50;;;26.10;47.60;;;;;;222168;1269;22533;-44
2023/07/23 17:39:59;;;;;;;2.50;2.40;;;26.10;48.20;;;;;;222230;1247;26693;-45
2023/07/23 17:45:04;;;;;;;2.80;2.60;;;26.10;47.80;;;;;;222197;1256;25362;-42
2023/07/23 17:50:16;;;;;;;2.80;2.60;;;26.10;47.80;;;;;;222396;1266;22605;-41
2023/07/23 17:55:21;;;;;;;2.90;2.70;;;26.10;48.20;;;;;;222334;1265;22515;-43
2023/07/23 18:00:25;;;;;;;2.60;2.40;;;26.10;48.00;;;;;;222229;1265;22638;-43
2023/07/23 18:05:32;;;;;;;2.60;2.40;;;26.10;48.00;;;;;;222207;1269;25346;-45
2023/07/23 18:10:43;;;;;;;3.60;2.50;;;26.10;48.10;;;;;;222313;1269;22661;-43
2023/07/23 18:15:48;;;;;;;2.70;2.50;;;26.10;48.20;;;;;;222528;1262;22514;-44
2023/07/23 18:20:53;;;;;;;2.80;2.60;;;26.00;48.60;;;;;;222068;1263;25214;-42
2023/07/23 18:25:58;;;;;;;2.60;2.50;;;26.00;48.20;;;;;;222261;1262;24218;-43
2023/07/23 18:31:09;;;;;;;;;;;26.10;48.40;;;;;;222125;1269;24702;-43
2023/07/23 18:36:32;;;;;;;2.30;2.20;;;26.00;48.50;;;;;;221944;1257;22529;-42
2023/07/23 18:41:38;;;;;;;2.50;2.40;;;26.00;48.60;;;;;;222281;1269;22540;-43
2023/07/23 18:46:44;;;;;;;2.40;2.30;;;26.00;48.80;;;;;;222175;1254;22650;-42
2023/07/23 18:51:49;;;;;;;2.80;2.60;;;26.00;48.90;;;;;;222399;1256;22651;-41
2023/07/23 18:56:54;;;;;;;2.80;2.60;;;26.00;48.90;;;;;;222376;1256;22528;-43
2023/07/23 19:01:59;;;;;;;3.10;2.90;;;26.00;48.90;;;;;;222303;1268;22514;-43
2023/07/23 19:07:05;;;;;;;4.10;3.00;;;26.00;48.90;;;;;;222483;1250;25384;-44
2023/07/23 19:12:10;;;;;;;2.80;2.60;;;25.90;49.00;;;;;;222301;1256;22507;-42
2023/07/23 19:17:17;;;;;;;2.90;2.60;;;26.00;48.90;;;;;;222271;1263;24062;-40
2023/07/23 19:22:21;;;;;;;4.10;2.60;;;25.90;48.60;;;;;;222238;1269;25272;-41
2023/07/23 19:27:26;;;;;;;3.10;2.80;;;25.90;48.40;;;;;;222081;1268;25340;-45
2023/07/23 19:32:32;;;;;;;2.70;2.50;;;25.90;48.50;;;;;;221744;1266;24278;-42
2023/07/23 19:37:37;;;;;;;3.50;3.10;;;25.90;48.50;;;;;;222211;1256;22790;-42
2023/07/23 19:42:44;;;;;;;3.00;2.80;;;25.80;48.10;;;;;;222484;1268;22643;-43
2023/07/23 19:47:48;;;;;;;2.90;2.70;;;25.90;48.00;;;;;;222062;1269;22616;-42
2023/07/23 19:52:53;;;;;;;4.20;3.30;;;25.80;48.00;;;;;;222164;1266;22575;-43
2023/07/23 19:57:58;;;;;;;3.60;3.10;;;25.90;48.00;;;;;;222080;1259;25462;-41
2023/07/23 20:03:03;;;;;;;3.10;2.80;;;25.80;47.40;;;;;;222288;1256;25984;-42
2023/07/23 20:08:09;;;;;;;2.80;2.60;;;25.80;47.40;;;;;;222085;1266;22511;-43
2023/07/23 20:13:14;;;;;;;3.50;3.20;;;25.80;47.60;;;;;;222228;1256;22737;-44
2023/07/23 20:18:18;;;;;;;2.80;2.60;;;25.90;48.00;;;;;;222379;1259;22552;-42
2023/07/23 20:23:23;;;;;;;5.40;3.10;;;25.80;47.80;;;;;;222473;1263;25318;-43
2023/07/23 20:28:28;;;;;;;2.90;2.70;;;25.80;47.60;;;;;;222444;1257;22513;-42
2023/07/23 20:33:38;;;;;;;3.10;2.90;;;25.80;47.40;;;;;;222539;1263;25405;-42
2023/07/23 20:38:44;;;;;;;3.10;2.90;;;25.70;47.10;;;;;;221894;1269;22640;-43
2023/07/23 20:43:49;;;;;;;4.00;3.00;;;25.80;46.80;;;;;;222162;1256;22649;-44
2023/07/23 20:48:54;;;;;;;3.00;2.70;;;25.70;46.50;;;;;;222232;1266;22606;-42
2023/07/23 20:53:59;;;;;;;3.30;3.00;;;25.70;46.30;;;;;;222492;1267;22598;-43
2023/07/23 20:59:04;;;;;;;5.00;3.30;;;25.70;46.40;;;;;;222497;1266;22534;-45
2023/07/23 21:04:10;;;;;;;3.70;3.40;;;25.70;46.30;;;;;;222153;1269;23926;-43
2023/07/23 21:09:14;;;;;;;4.80;3.20;;;25.60;45.60;;;;;;221819;1263;24291;-42
2023/07/23 21:14:18;;;;;;;8.60;3.70;;;25.70;45.60;;;;;;222212;1253;24187;-42
2023/07/23 21:19:22;;;;;;;4.40;3.80;;;25.60;45.60;;;;;;222121;1257;22625;-42
2023/07/23 21:24:26;;;;;;;8.10;3.60;;;25.70;45.80;;;;;;222121;1259;22632;-43
2023/07/23 21:29:31;;;;;;;3.40;3.20;;;25.70;45.70;;;;;;222079;1266;22511;-42
2023/07/23 21:34:35;;;;;;;3.10;2.90;;;25.70;45.80;;;;;;222400;1263;24228;-43
2023/07/23 21:39:40;;;;;;;4.60;3.70;;;25.70;46.00;;;;;;222320;1266;22535;-42
2023/07/23 21:44:44;;;;;;;3.90;3.50;;;25.70;46.40;;;;;;222015;1254;24749;-43
2023/07/23 21:49:48;;;;;;;5.10;3.70;;;25.70;46.10;;;;;;221935;1263;26240;-42
2023/07/23 21:54:52;;;;;;;3.90;3.50;;;25.70;46.20;;;;;;221998;1266;22508;-43
2023/07/23 21:59:57;;;;;;;4.70;3.90;;;25.70;46.30;;;;;;222023;1265;22533;-42
2023/07/23 22:05:01;;;;;;;3.50;3.20;;;25.70;46.30;;;;;;221958;1263;25278;-44
2023/07/23 22:10:06;;;;;;;4.90;3.80;;;25.70;46.50;;;;;;222238;1256;26506;-44
2023/07/23 22:15:11;;;;;;;4.90;3.70;;;25.70;46.60;;;;;;222117;1269;24208;-43
2023/07/23 22:20:15;;;;;;;4.00;3.70;;;25.70;46.80;;;;;;221903;1269;22504;-42
2023/07/23 22:25:19;;;;;;;4.90;4.00;;;25.70;46.80;;;;;;222337;1268;22564;-42
2023/07/23 22:30:23;;;;;;;3.30;3.10;;;25.70;47.60;;;;;;222006;1269;22507;-43
2023/07/23 22:35:34;;;;;;;3.70;3.40;;;25.70;47.20;;;;;;221877;1264;22511;-42
2023/07/23 22:40:38;;;;;;;3.10;2.80;;;25.70;47.20;;;;;;222048;1269;22519;-41
2023/07/23 22:45:42;;;;;;;3.90;3.70;;;25.70;47.40;;;;;;222138;1269;23146;-41
2023/07/23 22:50:46;;;;;;;4.10;3.80;;;25.70;47.60;;;;;;222231;1255;22514;-43
2023/07/23 22:55:50;;;;;;;3.80;3.40;;;25.70;47.80;;;;;;222026;1256;22528;-43
2023/07/23 23:01:00;;;;;;;4.10;3.70;;;25.70;47.50;;;;;;221996;1269;22529;-43
2023/07/23 23:06:04;;;;;;;3.80;3.50;;;25.70;47.90;;;;;;222137;1266;22534;-41
2023/07/23 23:11:09;;;;;;;5.80;3.70;;;25.70;48.30;;;;;;222345;1263;22536;-42
2023/07/23 23:16:13;;;;;;;4.10;3.80;;;25.70;48.00;;;;;;221838;1262;22625;-45
2023/07/23 23:21:19;;;;;;;4.60;3.70;;;25.70;48.00;;;;;;221980;1256;23926;-43
2023/07/23 23:26:23;;;;;;;4.20;3.40;;;25.60;47.90;;;;;;222039;1269;24174;-43
2023/07/23 23:31:27;;;;;;;4.00;3.70;;;25.60;47.90;;;;;;221812;1266;22763;-43
2023/07/23 23:36:31;;;;;;;3.90;3.60;;;25.60;48.00;;;;;;221945;1263;24334;-43
2023/07/23 23:41:36;;;;;;;3.80;3.50;;;25.60;48.10;;;;;;222024;1263;22632;-43
2023/07/23 23:46:40;;;;;;;4.20;3.90;;;25.60;48.20;;;;;;222122;1254;22727;-43
2023/07/23 23:51:44;;;;;;;3.20;3.00;;;25.60;48.60;;;;;;221826;1254;24039;-42
2023/07/23 23:56:48;;;;;;;3.70;3.40;;;25.60;48.10;;;;;;222123;1266;22987;-42
